sensor_id;sensor_type;location;lat;lon;timestamp;P1;durP1;ratioP1;P2;durP2;ratioP2
56752;SDS011;42627;42.646;23.642;2022-12-07T00:01:39;17.40;;;5.63;;
56752;SDS011;42627;42.646;23.642;2022-12-07T00:03:40;11.80;;;4.30;;
56752;SDS011;42627;42.646;23.642;2022-12-07T00:05:42;9.75;;;4.65;;
56752;SDS011;42627;42.646;23.642;2022-12-07T00:07:43;13.98;;;5.65;;
56752;SDS011;42627;42.646;23.642;2022-12-07T00:09:44;18.35;;;5.43;;
56752;SDS011;42627;42.646;23.642;2022-12-07T00:11:51;12.05;;;4.93;;
56752;SDS011;42627;42.646;23.642;2022-12-07T00:13:56;16.05;;;5.95;;
56752;SDS011;42627;42.646;23.642;2022-12-07T00:16:00;20.38;;;6.28;;
56752;SDS011;42627;42.646;23.642;2022-12-07T00:18:02;18.40;;;6.43;;
56752;SDS011;42627;42.646;23.642;2022-12-07T00:20:03;18.83;;;6.95;;
56752;SDS011;42627;42.646;23.642;2022-12-07T00:22:10;15.60;;;6.20;;
56752;SDS011;42627;42.646;23.642;2022-12-07T00:24:23;13.27;;;5.65;;
56752;SDS011;42627;42.646;23.642;2022-12-07T00:26:25;14.27;;;6.28;;
56752;SDS011;42627;42.646;23.642;2022-12-07T00:28:27;17.45;;;6.07;;
56752;SDS011;42627;42.646;23.642;2022-12-07T00:30:28;18.17;;;5.97;;
56752;SDS011;42627;42.646;23.642;2022-12-07T00:32:29;14.45;;;5.47;;
56752;SDS011;42627;42.646;23.642;2022-12-07T00:34:30;13.30;;;4.53;;
56752;SDS011;42627;42.646;23.642;2022-12-07T00:36:31;12.18;;;5.82;;
56752;SDS011;42627;42.646;23.642;2022-12-07T00:38:32;11.35;;;4.15;;
56752;SDS011;42627;42.646;23.642;2022-12-07T00:40:43;12.55;;;5.15;;
56752;SDS011;42627;42.646;23.642;2022-12-07T00:42:44;12.68;;;4.65;;
56752;SDS011;42627;42.646;23.642;2022-12-07T00:44:45;11.55;;;4.65;;
56752;SDS011;42627;42.646;23.642;2022-12-07T00:46:46;14.07;;;5.07;;
56752;SDS011;42627;42.646;23.642;2022-12-07T00:48:47;19.30;;;6.20;;
56752;SDS011;42627;42.646;23.642;2022-12-07T00:51:05;13.45;;;5.07;;
56752;SDS011;42627;42.646;23.642;2022-12-07T00:53:09;10.85;;;5.03;;
56752;SDS011;42627;42.646;23.642;2022-12-07T00:55:20;15.18;;;5.30;;
56752;SDS011;42627;42.646;23.642;2022-12-07T00:57:21;10.50;;;4.82;;
56752;SDS011;42627;42.646;23.642;2022-12-07T00:59:22;14.18;;;5.53;;
56752;SDS011;42627;42.646;23.642;2022-12-07T01:01:24;10.45;;;4.47;;
56752;SDS011;42627;42.646;23.642;2022-12-07T01:03:25;14.90;;;5.18;;
56752;SDS011;42627;42.646;23.642;2022-12-07T01:05:26;20.73;;;5.95;;
56752;SDS011;42627;42.646;23.642;2022-12-07T01:07:27;11.45;;;4.78;;
56752;SDS011;42627;42.646;23.642;2022-12-07T01:09:28;13.68;;;4.22;;
56752;SDS011;42627;42.646;23.642;2022-12-07T01:11:34;16.25;;;5.45;;
56752;SDS011;42627;42.646;23.642;2022-12-07T01:13:35;14.68;;;5.47;;
56752;SDS011;42627;42.646;23.642;2022-12-07T01:15:42;16.85;;;5.22;;
56752;SDS011;42627;42.646;23.642;2022-12-07T01:17:43;17.73;;;5.15;;
56752;SDS011;42627;42.646;23.642;2022-12-07T01:19:44;15.75;;;5.38;;
56752;SDS011;42627;42.646;23.642;2022-12-07T01:21:48;18.13;;;4.45;;
56752;SDS011;42627;42.646;23.642;2022-12-07T01:23:58;15.52;;;5.80;;
56752;SDS011;42627;42.646;23.642;2022-12-07T01:26:00;15.30;;;6.63;;
56752;SDS011;42627;42.646;23.642;2022-12-07T01:28:01;18.10;;;5.50;;
56752;SDS011;42627;42.646;23.642;2022-12-07T01:30:03;16.55;;;5.03;;
56752;SDS011;42627;42.646;23.642;2022-12-07T01:32:04;11.57;;;4.78;;
56752;SDS011;42627;42.646;23.642;2022-12-07T01:34:06;22.88;;;6.35;;
56752;SDS011;42627;42.646;23.642;2022-12-07T01:36:14;19.92;;;8.20;;
56752;SDS011;42627;42.646;23.642;2022-12-07T01:38:15;21.05;;;8.93;;
56752;SDS011;42627;42.646;23.642;2022-12-07T01:42:27;22.27;;;9.52;;
56752;SDS011;42627;42.646;23.642;2022-12-07T01:44:29;26.15;;;7.68;;
56752;SDS011;42627;42.646;23.642;2022-12-07T01:46:37;16.55;;;5.97;;
56752;SDS011;42627;42.646;23.642;2022-12-07T01:48:40;17.08;;;7.25;;
56752;SDS011;42627;42.646;23.642;2022-12-07T01:50:43;14.68;;;6.05;;
56752;SDS011;42627;42.646;23.642;2022-12-07T01:52:57;14.40;;;6.05;;
56752;SDS011;42627;42.646;23.642;2022-12-07T01:55:00;15.70;;;6.88;;
56752;SDS011;42627;42.646;23.642;2022-12-07T01:57:02;16.25;;;4.75;;
56752;SDS011;42627;42.646;23.642;2022-12-07T01:59:03;16.67;;;5.20;;
56752;SDS011;42627;42.646;23.642;2022-12-07T02:01:04;14.68;;;5.07;;
56752;SDS011;42627;42.646;23.642;2022-12-07T02:03:07;14.75;;;5.80;;
56752;SDS011;42627;42.646;23.642;2022-12-07T02:05:09;17.10;;;6.03;;
56752;SDS011;42627;42.646;23.642;2022-12-07T02:07:11;14.90;;;4.60;;
56752;SDS011;42627;42.646;23.642;2022-12-07T02:09:18;14.38;;;6.50;;
56752;SDS011;42627;42.646;23.642;2022-12-07T02:11:19;15.25;;;7.07;;
56752;SDS011;42627;42.646;23.642;2022-12-07T02:13:28;14.77;;;6.10;;
56752;SDS011;42627;42.646;23.642;2022-12-07T02:31:06;14.50;;;4.97;;
56752;SDS011;42627;42.646;23.642;2022-12-07T02:35:20;14.75;;;4.35;;
56752;SDS011;42627;42.646;23.642;2022-12-07T02:37:34;15.07;;;5.40;;
56752;SDS011;42627;42.646;23.642;2022-12-07T02:40:01;13.63;;;4.50;;
56752;SDS011;42627;42.646;23.642;2022-12-07T02:42:02;11.68;;;5.20;;
56752;SDS011;42627;42.646;23.642;2022-12-07T02:44:06;18.05;;;6.90;;
56752;SDS011;42627;42.646;23.642;2022-12-07T02:46:10;12.50;;;5.60;;
56752;SDS011;42627;42.646;23.642;2022-12-07T02:48:13;24.23;;;6.50;;
56752;SDS011;42627;42.646;23.642;2022-12-07T02:52:42;12.02;;;5.32;;
56752;SDS011;42627;42.646;23.642;2022-12-07T02:54:46;18.73;;;5.90;;
56752;SDS011;42627;42.646;23.642;2022-12-07T02:56:48;17.60;;;5.72;;
56752;SDS011;42627;42.646;23.642;2022-12-07T03:01:24;14.93;;;5.95;;
56752;SDS011;42627;42.646;23.642;2022-12-07T03:03:28;18.13;;;4.70;;
56752;SDS011;42627;42.646;23.642;2022-12-07T03:12:20;17.13;;;7.75;;
56752;SDS011;42627;42.646;23.642;2022-12-07T03:14:24;20.48;;;6.20;;
56752;SDS011;42627;42.646;23.642;2022-12-07T03:18:31;28.15;;;8.30;;
56752;SDS011;42627;42.646;23.642;2022-12-07T03:20:32;19.13;;;7.43;;
56752;SDS011;42627;42.646;23.642;2022-12-07T03:22:35;22.70;;;7.97;;
56752;SDS011;42627;42.646;23.642;2022-12-07T03:24:53;23.55;;;7.60;;
56752;SDS011;42627;42.646;23.642;2022-12-07T03:26:59;18.55;;;7.45;;
56752;SDS011;42627;42.646;23.642;2022-12-07T03:29:04;18.70;;;8.07;;
56752;SDS011;42627;42.646;23.642;2022-12-07T03:31:25;18.55;;;7.68;;
56752;SDS011;42627;42.646;23.642;2022-12-07T03:33:29;21.10;;;8.52;;
56752;SDS011;42627;42.646;23.642;2022-12-07T03:35:33;14.73;;;6.80;;
56752;SDS011;42627;42.646;23.642;2022-12-07T03:39:57;27.42;;;8.32;;
56752;SDS011;42627;42.646;23.642;2022-12-07T03:42:00;25.70;;;7.93;;
56752;SDS011;42627;42.646;23.642;2022-12-07T03:44:06;18.63;;;7.78;;
56752;SDS011;42627;42.646;23.642;2022-12-07T03:48:16;17.33;;;7.80;;
56752;SDS011;42627;42.646;23.642;2022-12-07T03:50:24;20.38;;;6.85;;
56752;SDS011;42627;42.646;23.642;2022-12-07T03:52:28;24.63;;;7.70;;
56752;SDS011;42627;42.646;23.642;2022-12-07T03:54:34;22.70;;;7.70;;
56752;SDS011;42627;42.646;23.642;2022-12-07T03:56:40;24.30;;;9.25;;
56752;SDS011;42627;42.646;23.642;2022-12-07T03:58:54;24.85;;;8.40;;
56752;SDS011;42627;42.646;23.642;2022-12-07T04:00:55;21.00;;;7.80;;
56752;SDS011;42627;42.646;23.642;2022-12-07T04:02:57;23.75;;;8.10;;
56752;SDS011;42627;42.646;23.642;2022-12-07T04:04:58;13.60;;;7.43;;
56752;SDS011;42627;42.646;23.642;2022-12-07T04:06:59;16.13;;;5.60;;
56752;SDS011;42627;42.646;23.642;2022-12-07T04:09:00;15.30;;;7.07;;
56752;SDS011;42627;42.646;23.642;2022-12-07T04:11:01;33.25;;;11.73;;
56752;SDS011;42627;42.646;23.642;2022-12-07T04:13:03;50.47;;;14.55;;
56752;SDS011;42627;42.646;23.642;2022-12-07T04:15:04;34.70;;;10.75;;
56752;SDS011;42627;42.646;23.642;2022-12-07T04:17:05;16.08;;;7.10;;
56752;SDS011;42627;42.646;23.642;2022-12-07T04:19:06;23.02;;;7.65;;
56752;SDS011;42627;42.646;23.642;2022-12-07T04:21:07;16.80;;;8.55;;
56752;SDS011;42627;42.646;23.642;2022-12-07T04:23:08;24.83;;;9.20;;
56752;SDS011;42627;42.646;23.642;2022-12-07T04:25:09;24.70;;;8.82;;
56752;SDS011;42627;42.646;23.642;2022-12-07T04:27:10;21.25;;;8.60;;
56752;SDS011;42627;42.646;23.642;2022-12-07T04:29:11;19.17;;;9.82;;
56752;SDS011;42627;42.646;23.642;2022-12-07T04:31:12;24.10;;;8.50;;
56752;SDS011;42627;42.646;23.642;2022-12-07T04:33:13;33.72;;;14.80;;
56752;SDS011;42627;42.646;23.642;2022-12-07T04:35:14;30.48;;;13.70;;
56752;SDS011;42627;42.646;23.642;2022-12-07T04:37:15;25.55;;;10.48;;
56752;SDS011;42627;42.646;23.642;2022-12-07T04:39:27;22.38;;;10.32;;
56752;SDS011;42627;42.646;23.642;2022-12-07T04:41:28;24.42;;;11.60;;
56752;SDS011;42627;42.646;23.642;2022-12-07T04:43:30;20.67;;;10.55;;
56752;SDS011;42627;42.646;23.642;2022-12-07T04:45:33;30.33;;;10.70;;
56752;SDS011;42627;42.646;23.642;2022-12-07T04:47:34;20.48;;;7.93;;
56752;SDS011;42627;42.646;23.642;2022-12-07T04:49:35;19.65;;;6.75;;
56752;SDS011;42627;42.646;23.642;2022-12-07T04:51:36;19.92;;;6.18;;
56752;SDS011;42627;42.646;23.642;2022-12-07T04:53:37;19.48;;;5.97;;
56752;SDS011;42627;42.646;23.642;2022-12-07T04:55:38;22.73;;;9.45;;
56752;SDS011;42627;42.646;23.642;2022-12-07T04:57:39;19.80;;;8.38;;
56752;SDS011;42627;42.646;23.642;2022-12-07T04:59:40;24.65;;;7.78;;
56752;SDS011;42627;42.646;23.642;2022-12-07T05:01:41;19.98;;;7.82;;
56752;SDS011;42627;42.646;23.642;2022-12-07T05:03:43;18.23;;;7.22;;
56752;SDS011;42627;42.646;23.642;2022-12-07T05:05:44;18.75;;;8.68;;
56752;SDS011;42627;42.646;23.642;2022-12-07T05:07:45;23.85;;;10.38;;
56752;SDS011;42627;42.646;23.642;2022-12-07T05:09:52;35.30;;;16.15;;
56752;SDS011;42627;42.646;23.642;2022-12-07T05:11:56;31.08;;;12.18;;
56752;SDS011;42627;42.646;23.642;2022-12-07T05:13:57;24.73;;;11.50;;
56752;SDS011;42627;42.646;23.642;2022-12-07T05:15:58;22.63;;;9.23;;
56752;SDS011;42627;42.646;23.642;2022-12-07T05:17:59;23.50;;;12.20;;
56752;SDS011;42627;42.646;23.642;2022-12-07T05:20:00;22.40;;;8.75;;
56752;SDS011;42627;42.646;23.642;2022-12-07T05:22:01;21.40;;;10.68;;
56752;SDS011;42627;42.646;23.642;2022-12-07T05:24:03;41.97;;;18.10;;
56752;SDS011;42627;42.646;23.642;2022-12-07T05:26:04;47.63;;;18.80;;
56752;SDS011;42627;42.646;23.642;2022-12-07T05:28:06;49.78;;;18.33;;
56752;SDS011;42627;42.646;23.642;2022-12-07T05:30:08;39.58;;;18.90;;
56752;SDS011;42627;42.646;23.642;2022-12-07T05:32:11;29.92;;;13.05;;
56752;SDS011;42627;42.646;23.642;2022-12-07T05:34:12;22.52;;;10.50;;
56752;SDS011;42627;42.646;23.642;2022-12-07T05:36:13;30.50;;;11.90;;
56752;SDS011;42627;42.646;23.642;2022-12-07T05:38:17;23.23;;;7.75;;
56752;SDS011;42627;42.646;23.642;2022-12-07T05:42:38;8.93;;;5.10;;
56752;SDS011;42627;42.646;23.642;2022-12-07T05:44:40;18.20;;;6.20;;
56752;SDS011;42627;42.646;23.642;2022-12-07T05:46:41;14.93;;;5.30;;
56752;SDS011;42627;42.646;23.642;2022-12-07T05:48:42;13.88;;;6.30;;
56752;SDS011;42627;42.646;23.642;2022-12-07T05:50:43;13.65;;;6.07;;
56752;SDS011;42627;42.646;23.642;2022-12-07T05:52:44;16.73;;;6.10;;
56752;SDS011;42627;42.646;23.642;2022-12-07T05:54:45;14.45;;;6.72;;
56752;SDS011;42627;42.646;23.642;2022-12-07T05:56:46;20.25;;;7.03;;
56752;SDS011;42627;42.646;23.642;2022-12-07T05:58:47;11.18;;;6.03;;
56752;SDS011;42627;42.646;23.642;2022-12-07T06:01:07;17.20;;;7.63;;
56752;SDS011;42627;42.646;23.642;2022-12-07T06:03:08;15.23;;;6.75;;
56752;SDS011;42627;42.646;23.642;2022-12-07T06:05:10;30.90;;;13.10;;
56752;SDS011;42627;42.646;23.642;2022-12-07T06:07:15;22.92;;;11.95;;
56752;SDS011;42627;42.646;23.642;2022-12-07T06:09:21;23.13;;;9.52;;
56752;SDS011;42627;42.646;23.642;2022-12-07T06:11:34;17.05;;;7.07;;
56752;SDS011;42627;42.646;23.642;2022-12-07T06:13:54;21.75;;;8.02;;
56752;SDS011;42627;42.646;23.642;2022-12-07T06:15:55;21.23;;;8.70;;
56752;SDS011;42627;42.646;23.642;2022-12-07T06:17:56;17.48;;;8.23;;
56752;SDS011;42627;42.646;23.642;2022-12-07T06:19:57;28.00;;;9.48;;
56752;SDS011;42627;42.646;23.642;2022-12-07T06:21:58;15.52;;;6.95;;
56752;SDS011;42627;42.646;23.642;2022-12-07T06:23:59;20.58;;;8.57;;
56752;SDS011;42627;42.646;23.642;2022-12-07T06:26:00;29.48;;;10.20;;
56752;SDS011;42627;42.646;23.642;2022-12-07T06:28:01;53.28;;;17.42;;
56752;SDS011;42627;42.646;23.642;2022-12-07T06:30:05;55.83;;;24.35;;
56752;SDS011;42627;42.646;23.642;2022-12-07T06:32:06;61.83;;;27.17;;
56752;SDS011;42627;42.646;23.642;2022-12-07T06:34:10;35.47;;;15.18;;
56752;SDS011;42627;42.646;23.642;2022-12-07T06:36:11;23.90;;;12.98;;
56752;SDS011;42627;42.646;23.642;2022-12-07T06:38:30;31.20;;;12.82;;
56752;SDS011;42627;42.646;23.642;2022-12-07T06:40:36;32.58;;;13.95;;
56752;SDS011;42627;42.646;23.642;2022-12-07T06:42:40;38.58;;;13.98;;
56752;SDS011;42627;42.646;23.642;2022-12-07T06:44:42;39.72;;;14.88;;
56752;SDS011;42627;42.646;23.642;2022-12-07T06:46:43;36.58;;;14.77;;
56752;SDS011;42627;42.646;23.642;2022-12-07T06:48:44;29.77;;;14.30;;
56752;SDS011;42627;42.646;23.642;2022-12-07T06:50:46;22.75;;;9.40;;
56752;SDS011;42627;42.646;23.642;2022-12-07T06:52:47;23.27;;;9.50;;
56752;SDS011;42627;42.646;23.642;2022-12-07T06:54:48;21.02;;;10.25;;
56752;SDS011;42627;42.646;23.642;2022-12-07T06:56:58;48.78;;;18.08;;
56752;SDS011;42627;42.646;23.642;2022-12-07T06:58:59;31.48;;;14.05;;
56752;SDS011;42627;42.646;23.642;2022-12-07T07:01:00;38.40;;;15.73;;
56752;SDS011;42627;42.646;23.642;2022-12-07T07:03:01;33.70;;;12.88;;
56752;SDS011;42627;42.646;23.642;2022-12-07T07:05:03;24.88;;;11.70;;
56752;SDS011;42627;42.646;23.642;2022-12-07T07:07:09;41.30;;;14.38;;
56752;SDS011;42627;42.646;23.642;2022-12-07T07:09:15;37.22;;;13.50;;
56752;SDS011;42627;42.646;23.642;2022-12-07T07:11:16;36.88;;;14.73;;
56752;SDS011;42627;42.646;23.642;2022-12-07T07:13:17;26.70;;;10.60;;
56752;SDS011;42627;42.646;23.642;2022-12-07T07:15:18;24.67;;;10.02;;
56752;SDS011;42627;42.646;23.642;2022-12-07T07:17:19;22.50;;;9.57;;
56752;SDS011;42627;42.646;23.642;2022-12-07T07:19:20;18.42;;;8.50;;
56752;SDS011;42627;42.646;23.642;2022-12-07T07:21:21;20.70;;;7.30;;
56752;SDS011;42627;42.646;23.642;2022-12-07T07:23:22;23.08;;;8.27;;
56752;SDS011;42627;42.646;23.642;2022-12-07T07:25:23;21.77;;;9.60;;
56752;SDS011;42627;42.646;23.642;2022-12-07T07:27:24;19.33;;;10.23;;
56752;SDS011;42627;42.646;23.642;2022-12-07T07:29:25;28.08;;;10.73;;
56752;SDS011;42627;42.646;23.642;2022-12-07T07:31:26;23.25;;;9.93;;
56752;SDS011;42627;42.646;23.642;2022-12-07T07:33:27;26.48;;;11.98;;
56752;SDS011;42627;42.646;23.642;2022-12-07T07:35:29;29.75;;;12.45;;
56752;SDS011;42627;42.646;23.642;2022-12-07T07:37:30;29.10;;;13.75;;
56752;SDS011;42627;42.646;23.642;2022-12-07T07:39:31;35.72;;;14.80;;
56752;SDS011;42627;42.646;23.642;2022-12-07T07:41:32;36.30;;;13.23;;
56752;SDS011;42627;42.646;23.642;2022-12-07T07:43:33;26.75;;;10.95;;
56752;SDS011;42627;42.646;23.642;2022-12-07T07:45:34;27.85;;;10.82;;
56752;SDS011;42627;42.646;23.642;2022-12-07T07:47:35;20.95;;;10.07;;
56752;SDS011;42627;42.646;23.642;2022-12-07T07:49:36;28.08;;;11.25;;
56752;SDS011;42627;42.646;23.642;2022-12-07T07:51:37;19.98;;;11.00;;
56752;SDS011;42627;42.646;23.642;2022-12-07T07:53:47;25.73;;;12.05;;
56752;SDS011;42627;42.646;23.642;2022-12-07T07:55:57;35.55;;;15.55;;
56752;SDS011;42627;42.646;23.642;2022-12-07T07:57:58;32.55;;;13.68;;
56752;SDS011;42627;42.646;23.642;2022-12-07T07:59:59;31.67;;;11.68;;
56752;SDS011;42627;42.646;23.642;2022-12-07T08:02:00;26.08;;;11.68;;
56752;SDS011;42627;42.646;23.642;2022-12-07T08:04:03;18.88;;;9.85;;
56752;SDS011;42627;42.646;23.642;2022-12-07T08:06:04;18.83;;;7.13;;
56752;SDS011;42627;42.646;23.642;2022-12-07T08:08:05;19.73;;;7.07;;
56752;SDS011;42627;42.646;23.642;2022-12-07T08:10:07;11.88;;;5.07;;
56752;SDS011;42627;42.646;23.642;2022-12-07T08:12:08;18.42;;;5.78;;
56752;SDS011;42627;42.646;23.642;2022-12-07T08:14:10;11.80;;;5.15;;
56752;SDS011;42627;42.646;23.642;2022-12-07T08:16:11;12.85;;;5.07;;
56752;SDS011;42627;42.646;23.642;2022-12-07T08:18:15;13.82;;;5.72;;
56752;SDS011;42627;42.646;23.642;2022-12-07T08:20:19;19.27;;;5.32;;
56752;SDS011;42627;42.646;23.642;2022-12-07T08:22:20;11.18;;;3.75;;
56752;SDS011;42627;42.646;23.642;2022-12-07T08:24:24;12.82;;;4.78;;
56752;SDS011;42627;42.646;23.642;2022-12-07T08:26:25;12.85;;;4.70;;
56752;SDS011;42627;42.646;23.642;2022-12-07T08:28:27;12.95;;;4.88;;
56752;SDS011;42627;42.646;23.642;2022-12-07T08:30:28;10.55;;;4.45;;
56752;SDS011;42627;42.646;23.642;2022-12-07T08:32:29;12.70;;;4.68;;
56752;SDS011;42627;42.646;23.642;2022-12-07T08:34:30;12.85;;;4.20;;
56752;SDS011;42627;42.646;23.642;2022-12-07T08:36:33;10.05;;;4.70;;
56752;SDS011;42627;42.646;23.642;2022-12-07T08:38:37;10.30;;;3.80;;
56752;SDS011;42627;42.646;23.642;2022-12-07T08:40:39;10.48;;;4.30;;
56752;SDS011;42627;42.646;23.642;2022-12-07T08:42:41;12.68;;;5.25;;
56752;SDS011;42627;42.646;23.642;2022-12-07T08:44:42;12.18;;;5.35;;
56752;SDS011;42627;42.646;23.642;2022-12-07T08:46:47;18.27;;;4.57;;
56752;SDS011;42627;42.646;23.642;2022-12-07T08:50:50;12.55;;;5.70;;
56752;SDS011;42627;42.646;23.642;2022-12-07T08:52:52;15.95;;;6.50;;
56752;SDS011;42627;42.646;23.642;2022-12-07T08:54:54;16.50;;;6.05;;
56752;SDS011;42627;42.646;23.642;2022-12-07T08:56:55;12.10;;;4.60;;
56752;SDS011;42627;42.646;23.642;2022-12-07T08:58:57;12.50;;;4.40;;
56752;SDS011;42627;42.646;23.642;2022-12-07T09:00:58;8.75;;;4.05;;
56752;SDS011;42627;42.646;23.642;2022-12-07T09:02:59;9.23;;;4.60;;
56752;SDS011;42627;42.646;23.642;2022-12-07T09:05:00;14.10;;;5.45;;
56752;SDS011;42627;42.646;23.642;2022-12-07T09:07:02;14.13;;;5.07;;
56752;SDS011;42627;42.646;23.642;2022-12-07T09:09:04;8.18;;;2.90;;
56752;SDS011;42627;42.646;23.642;2022-12-07T09:11:06;11.40;;;3.53;;
56752;SDS011;42627;42.646;23.642;2022-12-07T09:13:07;9.65;;;3.50;;
56752;SDS011;42627;42.646;23.642;2022-12-07T09:15:08;10.18;;;3.95;;
56752;SDS011;42627;42.646;23.642;2022-12-07T09:17:18;6.43;;;3.10;;
56752;SDS011;42627;42.646;23.642;2022-12-07T09:19:22;10.27;;;3.55;;
56752;SDS011;42627;42.646;23.642;2022-12-07T09:21:23;10.38;;;4.05;;
56752;SDS011;42627;42.646;23.642;2022-12-07T09:23:24;11.77;;;4.05;;
56752;SDS011;42627;42.646;23.642;2022-12-07T09:25:25;9.43;;;3.60;;
56752;SDS011;42627;42.646;23.642;2022-12-07T09:27:26;12.93;;;3.92;;
56752;SDS011;42627;42.646;23.642;2022-12-07T09:29:27;7.80;;;3.80;;
56752;SDS011;42627;42.646;23.642;2022-12-07T09:31:28;8.55;;;3.75;;
56752;SDS011;42627;42.646;23.642;2022-12-07T09:33:29;11.35;;;3.67;;
56752;SDS011;42627;42.646;23.642;2022-12-07T09:37:44;10.50;;;3.50;;
56752;SDS011;42627;42.646;23.642;2022-12-07T09:39:45;10.80;;;3.97;;
56752;SDS011;42627;42.646;23.642;2022-12-07T09:41:46;12.25;;;4.70;;
56752;SDS011;42627;42.646;23.642;2022-12-07T09:43:47;13.45;;;4.68;;
56752;SDS011;42627;42.646;23.642;2022-12-07T09:45:58;13.45;;;5.75;;
56752;SDS011;42627;42.646;23.642;2022-12-07T09:48:02;12.90;;;4.88;;
56752;SDS011;42627;42.646;23.642;2022-12-07T09:50:29;10.68;;;4.63;;
56752;SDS011;42627;42.646;23.642;2022-12-07T09:52:30;12.25;;;5.05;;
56752;SDS011;42627;42.646;23.642;2022-12-07T09:54:34;18.40;;;5.55;;
56752;SDS011;42627;42.646;23.642;2022-12-07T09:56:36;10.75;;;3.78;;
56752;SDS011;42627;42.646;23.642;2022-12-07T09:58:37;9.93;;;3.50;;
56752;SDS011;42627;42.646;23.642;2022-12-07T10:00:39;9.23;;;3.95;;
56752;SDS011;42627;42.646;23.642;2022-12-07T10:02:44;10.35;;;3.78;;
56752;SDS011;42627;42.646;23.642;2022-12-07T10:04:47;10.05;;;3.60;;
56752;SDS011;42627;42.646;23.642;2022-12-07T10:06:48;8.45;;;3.38;;
56752;SDS011;42627;42.646;23.642;2022-12-07T10:08:51;9.38;;;4.20;;
56752;SDS011;42627;42.646;23.642;2022-12-07T10:10:52;13.88;;;4.90;;
56752;SDS011;42627;42.646;23.642;2022-12-07T10:15:00;11.80;;;3.83;;
56752;SDS011;42627;42.646;23.642;2022-12-07T10:19:44;8.63;;;3.93;;
56752;SDS011;42627;42.646;23.642;2022-12-07T10:24:03;9.75;;;3.63;;
56752;SDS011;42627;42.646;23.642;2022-12-07T10:26:21;7.85;;;3.22;;
56752;SDS011;42627;42.646;23.642;2022-12-07T10:28:33;11.38;;;4.07;;
56752;SDS011;42627;42.646;23.642;2022-12-07T10:32:54;12.77;;;5.55;;
56752;SDS011;42627;42.646;23.642;2022-12-07T10:37:26;11.93;;;3.75;;
56752;SDS011;42627;42.646;23.642;2022-12-07T10:39:28;13.55;;;4.28;;
56752;SDS011;42627;42.646;23.642;2022-12-07T10:41:29;8.68;;;3.70;;
56752;SDS011;42627;42.646;23.642;2022-12-07T10:43:30;8.23;;;4.13;;
56752;SDS011;42627;42.646;23.642;2022-12-07T10:45:35;11.77;;;4.55;;
56752;SDS011;42627;42.646;23.642;2022-12-07T11:14:21;7.93;;;3.53;;
56752;SDS011;42627;42.646;23.642;2022-12-07T11:18:50;10.90;;;4.53;;
56752;SDS011;42627;42.646;23.642;2022-12-07T11:26:14;14.02;;;3.80;;
56752;SDS011;42627;42.646;23.642;2022-12-07T11:30:44;7.25;;;3.08;;
56752;SDS011;42627;42.646;23.642;2022-12-07T11:37:21;13.25;;;3.45;;
56752;SDS011;42627;42.646;23.642;2022-12-07T11:39:35;11.23;;;4.47;;
56752;SDS011;42627;42.646;23.642;2022-12-07T11:41:37;13.38;;;3.58;;
56752;SDS011;42627;42.646;23.642;2022-12-07T11:43:49;10.68;;;3.95;;
56752;SDS011;42627;42.646;23.642;2022-12-07T11:52:06;10.50;;;3.92;;
56752;SDS011;42627;42.646;23.642;2022-12-07T11:54:12;8.13;;;3.60;;
56752;SDS011;42627;42.646;23.642;2022-12-07T11:56:16;8.55;;;3.80;;
56752;SDS011;42627;42.646;23.642;2022-12-07T12:00:22;9.98;;;3.90;;
56752;SDS011;42627;42.646;23.642;2022-12-07T12:02:34;9.50;;;3.50;;
56752;SDS011;42627;42.646;23.642;2022-12-07T12:04:55;11.02;;;4.20;;
56752;SDS011;42627;42.646;23.642;2022-12-07T12:06:59;10.30;;;3.85;;
56752;SDS011;42627;42.646;23.642;2022-12-07T12:09:03;10.13;;;3.83;;
56752;SDS011;42627;42.646;23.642;2022-12-07T12:20:51;6.65;;;3.40;;
56752;SDS011;42627;42.646;23.642;2022-12-07T12:23:00;8.95;;;3.63;;
56752;SDS011;42627;42.646;23.642;2022-12-07T12:25:06;5.18;;;2.90;;
56752;SDS011;42627;42.646;23.642;2022-12-07T12:29:23;9.95;;;3.80;;
56752;SDS011;42627;42.646;23.642;2022-12-07T12:33:29;6.95;;;2.78;;
56752;SDS011;42627;42.646;23.642;2022-12-07T12:35:35;10.57;;;3.95;;
56752;SDS011;42627;42.646;23.642;2022-12-07T12:39:38;9.77;;;4.13;;
56752;SDS011;42627;42.646;23.642;2022-12-07T12:43:49;8.70;;;2.38;;
56752;SDS011;42627;42.646;23.642;2022-12-07T12:45:52;7.13;;;2.50;;
56752;SDS011;42627;42.646;23.642;2022-12-07T12:48:29;8.30;;;3.05;;
56752;SDS011;42627;42.646;23.642;2022-12-07T12:50:38;8.27;;;2.45;;
56752;SDS011;42627;42.646;23.642;2022-12-07T12:56:59;6.97;;;2.33;;
56752;SDS011;42627;42.646;23.642;2022-12-07T13:03:56;7.28;;;3.38;;
56752;SDS011;42627;42.646;23.642;2022-12-07T13:06:40;5.05;;;2.20;;
56752;SDS011;42627;42.646;23.642;2022-12-07T13:08:22;8.43;;;3.00;;
56752;SDS011;42627;42.646;23.642;2022-12-07T13:12:31;5.97;;;2.55;;
56752;SDS011;42627;42.646;23.642;2022-12-07T13:14:43;6.35;;;2.92;;
56752;SDS011;42627;42.646;23.642;2022-12-07T13:16:44;8.65;;;3.03;;
56752;SDS011;42627;42.646;23.642;2022-12-07T13:18:45;7.60;;;3.20;;
56752;SDS011;42627;42.646;23.642;2022-12-07T13:20:50;5.05;;;2.35;;
56752;SDS011;42627;42.646;23.642;2022-12-07T13:22:51;8.23;;;2.90;;
56752;SDS011;42627;42.646;23.642;2022-12-07T13:25:04;6.05;;;3.25;;
56752;SDS011;42627;42.646;23.642;2022-12-07T13:27:08;8.90;;;3.38;;
56752;SDS011;42627;42.646;23.642;2022-12-07T13:29:18;7.43;;;2.78;;
56752;SDS011;42627;42.646;23.642;2022-12-07T13:31:33;6.75;;;3.17;;
56752;SDS011;42627;42.646;23.642;2022-12-07T13:33:35;15.27;;;5.75;;
56752;SDS011;42627;42.646;23.642;2022-12-07T13:35:48;16.70;;;5.07;;
56752;SDS011;42627;42.646;23.642;2022-12-07T13:38:15;21.85;;;8.10;;
56752;SDS011;42627;42.646;23.642;2022-12-07T13:40:18;8.05;;;3.72;;
56752;SDS011;42627;42.646;23.642;2022-12-07T13:42:29;9.65;;;3.80;;
56752;SDS011;42627;42.646;23.642;2022-12-07T13:44:34;9.52;;;4.03;;
56752;SDS011;42627;42.646;23.642;2022-12-07T13:47:20;10.30;;;3.90;;
56752;SDS011;42627;42.646;23.642;2022-12-07T13:49:30;13.05;;;4.78;;
56752;SDS011;42627;42.646;23.642;2022-12-07T13:51:33;12.70;;;5.28;;
56752;SDS011;42627;42.646;23.642;2022-12-07T13:53:36;17.58;;;6.03;;
56752;SDS011;42627;42.646;23.642;2022-12-07T13:55:47;15.38;;;5.82;;
56752;SDS011;42627;42.646;23.642;2022-12-07T13:57:49;15.07;;;6.35;;
56752;SDS011;42627;42.646;23.642;2022-12-07T13:59:51;8.93;;;3.53;;
56752;SDS011;42627;42.646;23.642;2022-12-07T14:01:52;11.10;;;4.50;;
56752;SDS011;42627;42.646;23.642;2022-12-07T14:03:54;9.93;;;4.25;;
56752;SDS011;42627;42.646;23.642;2022-12-07T14:10:22;14.65;;;4.63;;
56752;SDS011;42627;42.646;23.642;2022-12-07T14:12:27;17.08;;;5.30;;
56752;SDS011;42627;42.646;23.642;2022-12-07T14:14:29;9.13;;;3.83;;
56752;SDS011;42627;42.646;23.642;2022-12-07T14:16:35;12.20;;;4.30;;
56752;SDS011;42627;42.646;23.642;2022-12-07T14:18:39;7.45;;;3.13;;
56752;SDS011;42627;42.646;23.642;2022-12-07T14:20:41;8.77;;;3.17;;
56752;SDS011;42627;42.646;23.642;2022-12-07T14:22:42;12.15;;;5.38;;
56752;SDS011;42627;42.646;23.642;2022-12-07T14:24:43;11.50;;;4.63;;